Address 0xd3f48a6f420904829bb82815a0d78ace694265b5 2

Overview

Balance:
0.995201603455699148 MATIC

Token:
My Name Tag:
Not Available

Txn Hash Method
Block
From
To
Value [Txn Fee]
0x0e5750f497feb9bc475b6c14877fac02fa64b4e56e5a308b1db20ac007302affSet State Aution269997382022-07-02 7:46:1744 mins ago0xd3f48a6f420904829bb82815a0d78ace694265b5OUT 0x514f77322d949bafd08eaed759a10e34ac7076ce0 MATIC0.001012530144 30.062353989
0xde7f8cb9f1c630d08d3bb85be81cf07a7a433c18b6671cf21210335365034613Create Aution269853832022-07-01 10:48:0221 hrs 42 mins ago0xd3f48a6f420904829bb82815a0d78ace694265b5OUT 0x514f77322d949bafd08eaed759a10e34ac7076ce0 MATIC0.004886004331 30.062353989
0x82ca64332d809698a10b8f5f24b40fb7d929d3a1b30c54c0366dd4508ecc873cBuy Fix Price269853612022-07-01 10:46:1221 hrs 44 mins ago0xd3f48a6f420904829bb82815a0d78ace694265b5OUT 0x514f77322d949bafd08eaed759a10e34ac7076ce0 MATIC0.000046826 2
0x8f9925595bc5b4afd944bf21c3f7c46f67d16f52eafbe6d077945f58e0b36aebBuy Fix Price269853612022-07-01 10:46:1221 hrs 44 mins ago0xd3f48a6f420904829bb82815a0d78ace694265b5OUT 0x514f77322d949bafd08eaed759a10e34ac7076ce0 MATIC0.000046826 2
0xa623154c73a82227fadc1c7c588a29060fa05d897165b75f6c5d647bbc0d7fa0Buy Fix Price269853612022-07-01 10:46:1221 hrs 44 mins ago0xd3f48a6f420904829bb82815a0d78ace694265b5OUT 0x514f77322d949bafd08eaed759a10e34ac7076ce0 MATIC0.000046826 2
0x058dc78bfe8e962cb535a043688efa691e4d217f321c9ba711ffc487368aaefaBuy Fix Price269853612022-07-01 10:46:1221 hrs 44 mins ago0xd3f48a6f420904829bb82815a0d78ace694265b5OUT 0x514f77322d949bafd08eaed759a10e34ac7076ce0 MATIC0.000046826 2
0x04e48f982f4a826562b0e387906687a91e80be303d255e354bd2c123b595cea0Create Aution269850242022-07-01 10:18:0222 hrs 12 mins ago0xd3f48a6f420904829bb82815a0d78ace694265b5OUT 0x514f77322d949bafd08eaed759a10e34ac7076ce0 MATIC0.004940279448 30.396295113
0x627b95f4e68e78b615eee9ec6527987c30005395ede544967ad52335d1256583Create Aution269849952022-07-01 10:13:1622 hrs 17 mins ago0xd3f48a6f420904829bb82815a0d78ace694265b5OUT 0x514f77322d949bafd08eaed759a10e34ac7076ce0 MATIC0.004940279448 30.396295113
0x22d5f85e474e86e756cb07b2743491d0d0bac29aff6f4b4dcadfdbfbcebd6649Create Aution269846872022-07-01 9:44:3122 hrs 46 mins ago0xd3f48a6f420904829bb82815a0d78ace694265b5OUT 0x514f77322d949bafd08eaed759a10e34ac7076ce0 MATIC0.005071836501 31.205732522
0x17ebe26bff5947e4245e73db48aa9b7289ba4796aed18e4a628ec42aa61e72faCreate Aution269843872022-07-01 9:19:2723 hrs 11 mins ago0xd3f48a6f420904829bb82815a0d78ace694265b5OUT 0x514f77322d949bafd08eaed759a10e34ac7076ce0 MATIC0.005071836501 31.205732522
0x958cb2b8ef6ec41319e6871a31500a7a06b0bc269655a7ff0271a2a80e7ba40fCreate Aution269843282022-07-01 9:14:3123 hrs 16 mins ago0xd3f48a6f420904829bb82815a0d78ace694265b5OUT 0x514f77322d949bafd08eaed759a10e34ac7076ce0 MATIC0.004920340629 30.273616582
0xba70f257b1da5bd92693b0e0c8b44270b2a2f33e8228f54a51d714a02be20c2dCreate Aution269841742022-07-01 8:56:1823 hrs 34 mins ago0xd3f48a6f420904829bb82815a0d78ace694265b5OUT 0x514f77322d949bafd08eaed759a10e34ac7076ce0 MATIC0.005243881767 32.264283715
0x9dbe3ebd0dec447b92e06e61434f9d06676432ac3ff7a769fde6b66bc33c3908Create Aution269831922022-07-01 7:28:031 day 1 hr ago0xd3f48a6f420904829bb82815a0d78ace694265b5OUT 0x514f77322d949bafd08eaed759a10e34ac7076ce0 MATIC0.005243881767 32.264283715
0xe1c7a447888a1e1403c8f4347735b659c18aabd144aa5bdb86c3be2c6fab70f9Set State Aution269687862022-06-30 9:17:101 day 23 hrs ago0xd3f48a6f420904829bb82815a0d78ace694265b5OUT 0x514f77322d949bafd08eaed759a10e34ac7076ce0 MATIC0.000074886425 2.425000011
0x240d09ff086707a3fab901c6c007d4f1851e37d6d2479af0dcaa0706d6f3918eSet State Aution269687852022-06-30 9:17:001 day 23 hrs ago0xd3f48a6f420904829bb82815a0d78ace694265b5OUT 0x514f77322d949bafd08eaed759a10e34ac7076ce0 MATIC0.000074886425 2.425000011
0xd1e877eb248338b61348ecbe90c408f40502e6758bab931439344cbf25e22bd6Set State Aution269687842022-06-30 9:16:501 day 23 hrs ago0xd3f48a6f420904829bb82815a0d78ace694265b5OUT 0x514f77322d949bafd08eaed759a10e34ac7076ce0 MATIC0.000074886425 2.425000011
0x8100c7349162be3785aec3513ced87bd6be677f0be53c66cd3557ebe61daa79dSet State Aution269687832022-06-30 9:16:401 day 23 hrs ago0xd3f48a6f420904829bb82815a0d78ace694265b5OUT 0x514f77322d949bafd08eaed759a10e34ac7076ce0 MATIC0.000074886425 2.425000011
0xa89b347ce901383404aba7377a8d612d3423982585f60d8de89328d874d1836cSet State Aution269687822022-06-30 9:16:301 day 23 hrs ago0xd3f48a6f420904829bb82815a0d78ace694265b5OUT 0x514f77322d949bafd08eaed759a10e34ac7076ce0 MATIC0.000074886425 2.425000011
0x90589d986cdf21e3f090a53a68c9ea0b2256028cb53ce50107520cd600889ba7Set State Aution269687812022-06-30 9:16:201 day 23 hrs ago0xd3f48a6f420904829bb82815a0d78ace694265b5OUT 0x514f77322d949bafd08eaed759a10e34ac7076ce0 MATIC0.000074886425 2.425000011
0x55738443a5913f91d86c4fd58b4ec6d6d5de2563abfbf3ceae398d589df00617Set State Aution269687802022-06-30 9:16:101 day 23 hrs ago0xd3f48a6f420904829bb82815a0d78ace694265b5OUT 0x514f77322d949bafd08eaed759a10e34ac7076ce0 MATIC0.000074886425 2.425000011
0x3069fc51dd3b89d3f370eb49e572b711420ab9a1c9e7e974e7944039df8ed04fSet State Aution269687792022-06-30 9:16:001 day 23 hrs ago0xd3f48a6f420904829bb82815a0d78ace694265b5OUT 0x514f77322d949bafd08eaed759a10e34ac7076ce0 MATIC0.000074886425 2.425000011
0xa7355218aedf85bf6f86d3cad9eefc25600ee84d7c505a81963639a336830a22Set State Aution269687782022-06-30 9:15:501 day 23 hrs ago0xd3f48a6f420904829bb82815a0d78ace694265b5OUT 0x514f77322d949bafd08eaed759a10e34ac7076ce0 MATIC0.000074886425 2.425000011
0x3818e78aef72024bab301ce508e7fd3bc3d7d1400e9eb12c6caf716db167e18dSet State Aution269687772022-06-30 9:15:401 day 23 hrs ago0xd3f48a6f420904829bb82815a0d78ace694265b5OUT 0x514f77322d949bafd08eaed759a10e34ac7076ce0 MATIC0.000074886425 2.425000011
0xd3b13e1efff917e6978ef223ec6fc584ab86abca167764e4922cc83924573c41Set State Aution269687762022-06-30 9:15:301 day 23 hrs ago0xd3f48a6f420904829bb82815a0d78ace694265b5OUT 0x514f77322d949bafd08eaed759a10e34ac7076ce0 MATIC0.000074886425 2.425000011
0x3f1f935d218e994c9c0f48ec138e60c4e08ab2baab3cb9cad6d268374f0bcb56Set State Aution269687742022-06-30 9:15:101 day 23 hrs ago0xd3f48a6f420904829bb82815a0d78ace694265b5OUT 0x514f77322d949bafd08eaed759a10e34ac7076ce0 MATIC0.000081676425 2.425000011
[ Download CSV Export 
Latest 4 internal transactions
Parent Txn Hash Block From To Value
0x79b74d611ae9d3314729e641ec08c92e71d1b4541ffb0a4b1e4bbd9c4cd9425a268867422022-06-24 10:53:387 days 21 hrs ago 0x7f092e65c688a509737fcd8d0998dd12208f52970xd3f48a6f420904829bb82815a0d78ace694265b50.2 MATIC
0xc8f84c3a610a77f99abf5b388665b06a1410c09ff393ec008d2ecf1ab1fce6a0268867002022-06-24 10:48:327 days 21 hrs ago 0x7f092e65c688a509737fcd8d0998dd12208f52970xd3f48a6f420904829bb82815a0d78ace694265b50.2 MATIC
0x477827a157de0c6581473d10ba669f8b25e4e2617a3e7cfe6dc87fde0e578548267525632022-06-15 7:24:0617 days 1 hr ago 0x7f092e65c688a509737fcd8d0998dd12208f52970xd3f48a6f420904829bb82815a0d78ace694265b50.2 MATIC
0x4caccb8efb8aa6cde353c5861d24386aff062220b8c2f0fa34a2778395b90095265647592022-06-02 4:36:0530 days 3 hrs ago 0x7f092e65c688a509737fcd8d0998dd12208f52970xd3f48a6f420904829bb82815a0d78ace694265b50.2 MATIC
[ Download CSV Export 
Loading

Contract Name:
0 MATIC

Compiler Version
0

Optimization Enabled:
0 MATIC

Other Settings:
-NA-
Block Transaction Gas Used Reward
Age Block Fee Address BC Fee Address Voting Power Jailed Incoming
Block Uncle Number Difficulty Gas Used Reward
Loading